Time;durP1;ratioP1;P1;durP2;ratioP2;P2;SDS_P1;SDS_P2;PMS_P1;PMS_P2;Temp;Humidity;BMP_temperature;BMP_pressure;BME280_temperature;BME280_humidity;BME280_pressure;Samples;Min_cycle;Max_cycle;Signal;HPM_P1;HPM_P2
2023/09/21 00:00:28;;;;;;;;;;;;;;;17.80;100.00;99955.00;5070721;28;20033;-36
2023/09/21 00:02:55;;;;;;;3.15;1.48;;;;;;;17.70;100.00;99959.50;5070443;28;20396;-36
2023/09/21 00:05:22;;;;;;;2.53;1.33;;;;;;;17.69;100.00;99962.53;5069555;28;20029;-36
2023/09/21 00:07:48;;;;;;;2.78;1.60;;;;;;;17.67;100.00;99957.38;5069791;28;20055;-36
2023/09/21 00:10:14;;;;;;;2.38;1.33;;;;;;;17.66;100.00;99953.00;5057668;28;20032;-36
2023/09/21 00:12:40;;;;;;;;;;;;;;;17.73;100.00;99950.72;5057341;28;20035;-36
2023/09/21 00:15:07;;;;;;;1.92;1.27;;;;;;;17.64;100.00;99957.16;5056266;28;19992;-36
2023/09/21 00:17:39;;;;;;;2.25;1.30;;;;;;;17.65;100.00;99953.31;5056954;28;20361;-36
2023/09/21 00:22:55;;;;;;;2.38;1.35;;;;;;;17.57;100.00;99943.88;5055938;28;20108;-36
2023/09/21 00:25:22;;;;;;;3.28;1.40;;;;;;;17.56;100.00;99936.75;5056020;28;20104;-36
2023/09/21 00:27:48;;;;;;;4.20;1.40;;;;;;;17.47;100.00;99930.34;5055984;28;20066;-36
2023/09/21 00:30:13;;;;;;;;;;;;;;;17.59;100.00;99932.63;5056406;28;20032;-36
2023/09/21 00:32:41;;;;;;;4.45;1.27;;;;;;;17.50;100.00;99930.59;5055980;28;20286;-36
2023/09/21 00:35:11;;;;;;;3.03;1.40;;;;;;;17.47;100.00;99922.16;5055816;28;20079;-36
2023/09/21 00:37:38;;;;;;;2.42;1.50;;;;;;;17.46;100.00;99923.28;5056079;28;20024;-36
2023/09/21 00:40:15;;;;;;;3.90;1.50;;;;;;;17.42;100.00;99917.63;5055713;28;20031;-36
2023/09/21 00:42:41;;;;;;;4.05;1.58;;;;;;;17.35;100.00;99898.03;5055877;28;20357;-36
2023/09/21 00:45:08;;;;;;;2.42;1.40;;;;;;;17.42;100.00;99914.03;5055967;28;20052;-36
2023/09/21 00:47:41;;;;;;;4.22;1.55;;;;;;;17.40;100.00;99900.69;5055695;28;20035;-36
2023/09/21 00:50:11;;;;;;;3.72;1.63;;;;;;;17.36;100.00;99898.84;5055901;28;20053;-36
2023/09/21 00:52:41;;;;;;;3.35;1.50;;;;;;;17.41;100.00;99898.75;5055591;28;20078;-36
2023/09/21 00:55:16;;;;;;;3.10;1.48;;;;;;;17.42;100.00;99889.44;5055567;28;20074;-36
2023/09/21 00:57:45;;;;;;;2.85;1.50;;;;;;;17.44;100.00;99887.25;5055951;28;20045;-36
2023/09/21 01:00:16;;;;;;;3.45;1.45;;;;;;;17.47;100.00;99886.63;5055372;28;20029;-36
2023/09/21 01:02:42;;;;;;;1.73;1.23;;;;;;;17.39;100.00;99860.81;5055923;28;20027;-36
2023/09/21 01:05:13;;;;;;;3.15;1.52;;;;;;;17.45;100.00;99872.47;5055899;28;20112;-36
2023/09/21 01:07:39;;;;;;;2.33;1.40;;;;;;;17.49;100.00;99870.75;5055576;28;20103;-36
2023/09/21 01:10:07;;;;;;;1.88;1.20;;;;;;;17.51;100.00;99874.78;5055165;28;20112;-36
2023/09/21 01:12:35;;;;;;;2.22;1.30;;;;;;;17.50;100.00;99867.72;5055707;28;20395;-36
2023/09/21 01:15:11;;;;;;;1.80;1.17;;;;;;;17.51;100.00;99861.13;5055089;28;20124;-37
2023/09/21 01:17:44;;;;;;;3.95;1.70;;;;;;;17.59;100.00;99870.56;5055033;28;20473;-36
2023/09/21 01:20:14;;;;;;;4.38;1.38;;;;;;;17.61;100.00;99857.41;5054694;28;20469;-36
2023/09/21 01:22:43;;;;;;;3.25;1.75;;;;;;;17.65;100.00;99850.22;5055249;28;20445;-36
2023/09/21 01:25:08;;;;;;;2.75;1.40;;;;;;;17.67;100.00;99852.69;5055209;28;20032;-37
2023/09/21 01:27:34;;;;;;;;;;;;;;;17.70;100.00;99850.13;5055815;28;20020;-36
2023/09/21 01:29:59;;;;;;;2.55;1.30;;;;;;;17.65;100.00;99835.75;5055083;28;19905;-36
2023/09/21 01:32:24;;;;;;;;;;;;;;;17.70;100.00;99836.47;5055745;28;20043;-36
2023/09/21 01:34:50;;;;;;;2.57;1.47;;;;;;;17.67;100.00;99830.81;5054461;28;19923;-36
2023/09/21 01:37:15;;;;;;;;;;;;;;;17.69;100.00;99832.09;5054823;28;20301;-36
2023/09/21 01:39:42;;;;;;;3.85;1.60;;;;;;;17.68;100.00;99832.41;5054652;28;19916;-36
2023/09/21 01:42:08;;;;;;;3.35;1.70;;;;;;;17.65;100.00;99825.63;5054853;28;20082;-36
2023/09/21 01:44:33;;;;;;;;;;;;;;;17.72;100.00;99827.97;5054716;28;20461;-36
2023/09/21 01:46:59;;;;;;;2.70;1.33;;;;;;;17.66;100.00;99827.22;5055037;28;20284;-36
2023/09/21 01:49:24;;;;;;;;;;;;;;;17.70;100.00;99832.91;5054626;28;20342;-36
2023/09/21 01:51:51;;;;;;;2.50;1.50;;;;;;;17.60;100.00;99805.78;5054449;28;19919;-36
2023/09/21 01:54:17;;;;;;;2.25;1.40;;;;;;;17.62;100.00;99815.31;5054108;28;20091;-36
2023/09/21 01:56:42;;;;;;;;;;;;;;;17.70;100.00;99819.25;5055302;28;20452;-36
2023/09/21 01:59:08;;;;;;;2.73;1.57;;;;;;;17.66;100.00;99815.50;5054022;28;19912;-36
2023/09/21 02:01:33;;;;;;;;;;;;;;;17.69;100.00;99815.69;5055217;28;20291;-36
2023/09/21 02:03:59;;;;;;;3.25;1.45;;;;;;;17.65;100.00;99809.22;5054192;28;19904;-36
2023/09/21 02:06:24;;;;;;;;;;;;;;;17.70;100.00;99806.38;5054631;28;20021;-36
2023/09/21 02:08:49;;;;;;;2.13;1.20;;;;;;;17.66;100.00;99796.34;5053906;28;19915;-36
2023/09/21 02:11:14;;;;;;;;;;;;;;;17.70;100.00;99808.31;5054521;28;20264;-36
2023/09/21 02:13:40;;;;;;;1.95;1.27;;;;;;;17.65;100.00;99802.94;5054026;28;20006;-36
2023/09/21 02:16:06;;;;;;;;;;;;;;;17.67;100.00;99796.06;5054929;28;20028;-36
2023/09/21 02:18:32;;;;;;;4.28;1.48;;;;;;;17.61;100.00;99807.38;5054162;28;20238;-35
2023/09/21 02:20:59;;;;;;;;;;;;;;;17.63;100.00;99795.06;5054285;28;20035;-36
2023/09/21 02:23:24;;;;;;;2.30;1.17;;;;;;;17.61;100.00;99797.25;5053884;28;19905;-36
2023/09/21 02:25:53;;;;;;;;;;;;;;;17.66;100.00;99804.56;5054324;28;20027;-36
2023/09/21 02:28:18;;;;;;;1.80;1.25;;;;;;;17.58;100.00;99802.53;5054329;28;19908;-36
2023/09/21 02:30:47;;;;;;;;;;;;;;;17.62;100.00;99804.38;5054188;28;20441;-36
2023/09/21 02:33:15;;;;;;;3.10;1.40;;;;;;;17.51;100.00;99795.53;5053782;28;20226;-36
2023/09/21 02:35:41;;;;;;;1.95;1.27;;;;;;;17.47;100.00;99786.34;5053690;28;20060;-36
2023/09/21 02:38:07;;;;;;;;;;;;;;;17.56;100.00;99791.91;5054090;28;20112;-36
2023/09/21 02:40:33;;;;;;;1.90;1.27;;;;;;;17.49;100.00;99797.78;5054438;28;19908;-36
2023/09/21 02:42:58;;;;;;;;;;;;;;;17.53;100.00;99791.72;5054620;28;20029;-36
2023/09/21 02:45:25;;;;;;;3.57;1.63;;;;;;;17.45;100.00;99794.03;5053292;28;19951;-36
2023/09/21 02:47:53;;;;;;;2.30;1.20;;;;;;;17.45;100.00;99782.28;5053589;28;20270;-36
2023/09/21 02:50:25;;;;;;;2.20;1.15;;;;;;;17.42;100.00;99778.25;5053538;28;20403;-36
2023/09/21 02:52:54;;;;;;;2.70;1.38;;;;;;;17.42;100.00;99774.66;5053778;28;20025;-36
2023/09/21 02:55:24;;;;;;;1.60;1.20;;;;;;;17.45;100.00;99780.34;5053426;28;20017;-35
2023/09/21 02:58:10;;;;;;;1.98;1.13;;;;;;;17.46;100.00;99787.44;5053977;28;20028;-36
2023/09/21 03:00:39;;;;;;;2.10;1.45;;;;;;;17.43;100.00;99768.13;5054243;28;20033;-36
2023/09/21 03:03:06;;;;;;;2.60;1.20;;;;;;;17.47;100.00;99772.69;5054026;28;20104;-36
2023/09/21 03:05:33;;;;;;;2.30;1.40;;;;;;;17.41;100.00;99768.41;5053346;28;20074;-36
2023/09/21 03:08:09;;;;;;;2.25;1.05;;;;;;;17.40;100.00;99768.72;5054208;28;20029;-36
2023/09/21 03:10:37;;;;;;;2.15;1.05;;;;;;;17.42;100.00;99769.22;5053080;28;20017;-36
2023/09/21 03:13:03;;;;;;;2.40;1.50;;;;;;;17.37;100.00;99752.91;5053130;28;20029;-36
2023/09/21 03:15:30;;;;;;;4.38;1.60;;;;;;;17.43;100.00;99758.00;5053825;28;20075;-36
2023/09/21 03:17:56;;;;;;;;;;;;;;;17.48;100.00;99765.28;5053353;28;20029;-36
2023/09/21 03:20:37;;;;;;;1.90;1.30;;;;;;;17.49;100.00;99766.91;5053028;28;19915;-36
2023/09/21 03:23:09;;;;;;;3.78;1.40;;;;;;;17.34;100.00;99748.88;5053181;28;20266;-36
2023/09/21 03:25:43;;;;;;;2.97;1.30;;;;;;;17.45;100.00;99760.41;5053457;28;20025;-36
2023/09/21 03:28:13;;;;;;;4.40;1.60;;;;;;;17.35;100.00;99750.50;5053224;28;20083;-35
2023/09/21 03:30:42;;;;;;;3.33;1.30;;;;;;;17.39;100.00;99756.16;5053642;28;20021;-36
2023/09/21 03:33:09;;;;;;;1.92;1.10;;;;;;;17.35;100.00;99760.63;5053170;28;20021;-36
2023/09/21 03:35:35;;;;;;;3.10;1.30;;;;;;;17.27;100.00;99753.09;5052754;28;20027;-36
2023/09/21 03:38:01;;;;;;;;;;;;;;;17.34;100.00;99756.28;5054043;28;20437;-36
2023/09/21 03:40:26;;;;;;;4.72;1.15;;;;;;;17.18;100.00;99751.09;5053024;28;19913;-36
2023/09/21 03:42:57;;;;;;;;;;;;;;;17.24;100.00;99749.88;5053776;28;20032;-36
2023/09/21 03:45:26;;;;;;;2.85;1.30;;;;;;;17.06;100.00;99745.28;5056562;28;19956;-36
2023/09/21 03:47:54;;;;;;;1.90;1.25;;;;;;;17.02;100.00;99740.72;5057361;28;20017;-35
2023/09/21 03:50:27;;;;;;;1.65;1.15;;;;;;;16.93;100.00;99729.69;5056673;28;20060;-36
2023/09/21 03:52:53;;;;;;;3.10;1.50;;;;;;;16.94;100.00;99729.41;5057535;28;20074;-36
2023/09/21 03:55:20;;;;;;;4.55;2.00;;;;;;;16.96;100.00;99740.00;5056331;28;20507;-36
2023/09/21 03:57:46;;;;;;;2.35;1.35;;;;;;;16.91;100.00;99740.09;5057059;28;20025;-36
2023/09/21 04:00:29;;;;;;;2.00;1.30;;;;;;;16.83;100.00;99733.41;5056270;28;20036;-36
2023/09/21 04:03:00;;;;;;;2.40;1.30;;;;;;;16.84;100.00;99723.31;5057004;28;20457;-36
2023/09/21 04:05:28;;;;;;;2.40;1.20;;;;;;;16.91;100.00;99740.09;5056466;28;20461;-36
2023/09/21 04:07:54;;;;;;;4.25;1.30;;;;;;;16.92;100.00;99728.88;5056988;28;20029;-36
2023/09/21 04:10:20;;;;;;;;;;;;;;;16.99;100.00;99732.03;5057309;28;20067;-36
2023/09/21 04:12:46;;;;;;;2.28;1.33;;;;;;;16.94;100.00;99734.06;5056838;28;19915;-36
2023/09/21 04:15:11;;;;;;;;;;;;;;;16.99;100.00;99731.22;5056461;28;20025;-36
2023/09/21 04:17:39;;;;;;;4.55;1.50;;;;;;;16.96;100.00;99734.53;5056169;28;19909;-36
2023/09/21 04:20:09;;;;;;;4.13;1.50;;;;;;;16.90;100.00;99722.91;5055857;28;20029;-36
2023/09/21 04:22:35;;;;;;;2.53;1.20;;;;;;;16.91;100.00;99732.72;5056476;28;20357;-36
2023/09/21 04:25:01;;;;;;;;;;;;;;;17.02;100.00;99735.25;5056851;28;20111;-36
2023/09/21 04:27:27;;;;;;;2.72;1.27;;;;;;;16.95;100.00;99731.00;5056067;28;20267;-36
2023/09/21 04:29:52;;;;;;;;;;;;;;;17.02;100.00;99732.53;5056153;28;20121;-36
2023/09/21 04:32:17;;;;;;;5.93;1.60;;;;;;;17.02;100.00;99730.59;5056086;28;19912;-36
2023/09/21 04:34:43;;;;;;;;;;;;;;;17.09;100.00;99730.22;5056082;28;20031;-36
2023/09/21 04:37:09;;;;;;;3.13;1.60;;;;;;;17.12;100.00;99721.41;5055948;28;19909;-36
2023/09/21 04:39:34;;;;;;;;;;;;;;;17.17;100.00;99724.88;5056262;28;20025;-37
2023/09/21 04:42:00;;;;;;;2.00;1.30;;;;;;;17.20;100.00;99718.81;5055654;28;19913;-36
2023/09/21 04:44:26;;;;;;;2.80;1.40;;;;;;;17.23;100.00;99710.00;5055732;28;20260;-36
2023/09/21 04:46:51;;;;;;;;;;;;;;;17.31;100.00;99710.41;5056738;28;20021;-36
2023/09/21 04:49:16;;;;;;;2.20;1.30;;;;;;;17.38;100.00;99714.38;5055974;28;19905;-36
2023/09/21 04:51:42;;;;;;;;;;;;;;;17.45;100.00;99716.69;5056686;28;20334;-36
2023/09/21 04:54:08;;;;;;;2.45;1.33;;;;;;;17.53;100.00;99709.72;5055570;28;20322;-36
2023/09/21 04:56:34;;;;;;;1.90;1.20;;;;;;;17.61;100.00;99708.97;5055685;28;20025;-36
2023/09/21 04:58:59;;;;;;;;;;;;;;;17.67;100.00;99708.59;5055962;28;20032;-36
2023/09/21 05:01:25;;;;;;;3.93;1.40;;;;;;;17.71;100.00;99704.13;5055212;28;19908;-36
2023/09/21 05:03:50;;;;;;;3.13;1.30;;;;;;;17.73;100.00;99696.47;5055994;28;20016;-36
2023/09/21 05:06:18;;;;;;;;;;;;;;;17.81;100.00;99714.03;5055511;28;20033;-36
2023/09/21 05:08:44;;;;;;;2.20;1.30;;;;;;;17.80;100.00;99696.03;5055028;28;19908;-36
2023/09/21 05:11:09;;;;;;;;;;;;;;;17.89;100.00;99699.66;5055353;28;20021;-36
2023/09/21 05:13:35;;;;;;;2.63;1.38;;;;;;;17.91;100.00;99708.38;5055245;28;19905;-36
2023/09/21 05:16:00;;;;;;;;;;;;;;;17.93;100.00;99699.88;5055618;28;20025;-36
2023/09/21 05:18:26;;;;;;;2.60;1.47;;;;;;;17.93;100.00;99691.66;5055832;28;19954;-36
2023/09/21 05:20:51;;;;;;;;;;;;;;;17.96;100.00;99693.78;5055489;28;20310;-36
2023/09/21 05:23:16;;;;;;;6.60;2.10;;;;;;;17.89;100.00;99672.31;5054731;28;20047;-36
2023/09/21 05:25:42;;;;;;;;;;;;;;;18.00;100.00;99690.09;5055386;28;20031;-36
2023/09/21 05:28:07;;;;;;;3.75;1.33;;;;;;;17.98;100.00;99683.34;5055755;28;19912;-36
2023/09/21 05:30:32;;;;;;;;;;;;;;;18.05;100.00;99691.91;5055020;28;20033;-36
2023/09/21 05:33:00;;;;;;;3.00;1.25;;;;;;;18.09;100.00;99689.38;5055067;28;19904;-36
2023/09/21 05:35:26;;;;;;;3.20;1.63;;;;;;;18.12;100.00;99691.50;5054693;28;20119;-36
2023/09/21 05:37:51;;;;;;;;;;;;;;;18.13;100.00;99693.91;5054360;28;20107;-36
2023/09/21 05:40:17;;;;;;;3.17;1.23;;;;;;;18.13;100.00;99687.66;5055131;28;20333;-36
2023/09/21 05:42:44;;;;;;;;;;;;;;;18.15;100.00;99694.41;5055893;28;20303;-36
2023/09/21 05:45:09;;;;;;;3.33;1.50;;;;;;;18.16;100.00;99696.06;5054453;28;20249;-36
2023/09/21 05:47:35;;;;;;;;;;;;;;;18.24;100.00;99691.75;5055592;28;20158;-36
2023/09/21 05:50:00;;;;;;;3.93;1.33;;;;;;;18.18;100.00;99684.78;5054485;28;19915;-36
2023/09/21 05:52:25;;;;;;;;;;;;;;;18.32;100.00;99691.03;5055518;28;20259;-36
2023/09/21 05:54:51;;;;;;;2.67;1.27;;;;;;;18.38;100.00;99688.97;5054911;28;20288;-36
2023/09/21 05:57:17;;;;;;;8.23;2.88;;;;;;;18.42;100.00;99687.22;5054868;28;20366;-36
2023/09/21 05:59:42;;;;;;;;;;;;;;;18.44;100.00;99695.94;5054772;28;20037;-36
2023/09/21 06:02:13;;;;;;;4.72;1.40;;;;;;;18.44;100.00;99693.19;5054334;28;19908;-36
2023/09/21 06:04:42;;;;;;;3.50;1.50;;;;;;;18.41;100.00;99694.63;5054566;28;20025;-36
2023/09/21 06:07:07;;;;;;;4.35;1.20;;;;;;;18.37;100.00;99684.63;5054279;28;20036;-36
2023/09/21 06:09:33;;;;;;;;;;;;;;;18.39;100.00;99696.06;5055149;28;20369;-36
2023/09/21 06:11:59;;;;;;;4.43;1.45;;;;;;;18.25;100.00;99685.16;5054725;28;20342;-36
2023/09/21 06:14:24;;;;;;;2.70;1.20;;;;;;;18.25;100.00;99685.16;5054937;28;20033;-36
2023/09/21 06:16:51;;;;;;;;;;;;;;;18.28;100.00;99696.28;5054132;28;20028;-37
2023/09/21 06:19:18;;;;;;;3.60;1.40;;;;;;;18.17;100.00;99705.88;5054028;28;19962;-37
2023/09/21 06:21:45;;;;;;;3.08;1.33;;;;;;;18.10;100.00;99705.47;5054847;28;20179;-37
2023/09/21 06:24:12;;;;;;;4.05;1.77;;;;;;;18.01;100.00;99702.69;5054478;28;20105;-36
2023/09/21 06:26:38;;;;;;;3.65;1.50;;;;;;;17.91;100.00;99708.38;5053928;28;20025;-36
2023/09/21 06:29:04;;;;;;;3.65;1.65;;;;;;;17.86;100.00;99704.94;5054087;28;20040;-36
2023/09/21 06:31:29;;;;;;;;;;;;;;;17.82;100.00;99712.16;5054301;28;20373;-36
2023/09/21 06:33:58;;;;;;;3.42;1.70;;;;;;;17.71;100.00;99706.88;5054859;28;19962;-36
2023/09/21 06:36:30;;;;;;;5.00;1.80;;;;;;;17.63;100.00;99709.50;5054054;28;20056;-36
2023/09/21 06:38:57;;;;;;;3.70;1.77;;;;;;;17.58;100.00;99709.59;5053671;28;20057;-36
2023/09/21 06:41:24;;;;;;;3.15;1.58;;;;;;;17.59;100.00;99711.22;5053379;28;20453;-36
2023/09/21 06:43:51;;;;;;;3.90;1.90;;;;;;;17.53;100.00;99718.72;5054290;28;20100;-36
2023/09/21 06:46:17;;;;;;;2.10;1.50;;;;;;;17.50;100.00;99714.66;5053848;28;20025;-36
2023/09/21 06:48:42;;;;;;;3.75;1.73;;;;;;;17.46;100.00;99707.38;5053419;28;20369;-36
2023/09/21 06:51:08;;;;;;;;;;;;;;;17.54;100.00;99706.66;5053683;28;20021;-36
2023/09/21 06:53:36;;;;;;;4.18;1.50;;;;;;;17.46;100.00;99712.84;5054129;28;19958;-36
2023/09/21 06:56:03;;;;;;;6.20;1.90;;;;;;;17.45;100.00;99722.16;5054011;28;20032;-36
2023/09/21 06:58:30;;;;;;;3.30;1.60;;;;;;;17.44;100.00;99720.53;5053724;28;20369;-36
2023/09/21 07:00:57;;;;;;;2.45;1.73;;;;;;;17.41;100.00;99723.88;5053939;28;20403;-36
2023/09/21 07:03:23;;;;;;;4.45;1.77;;;;;;;17.36;100.00;99727.50;5053986;28;20112;-36
2023/09/21 07:05:49;;;;;;;;;;;;;;;17.39;100.00;99732.38;5053535;28;20154;-36
2023/09/21 07:08:15;;;;;;;2.83;1.63;;;;;;;17.24;100.00;99735.41;5053755;28;19913;-36
2023/09/21 07:10:41;;;;;;;4.85;1.92;;;;;;;17.16;100.00;99727.91;5053330;28;20107;-36
2023/09/21 07:13:07;;;;;;;;;;;;;;;17.20;100.00;99732.47;5053874;28;20107;-36
2023/09/21 07:15:33;;;;;;;2.50;1.58;;;;;;;17.07;100.00;99735.97;5053044;28;19915;-36
2023/09/21 07:17:58;;;;;;;;;;;;;;;17.10;100.00;99734.56;5053786;28;20441;-36
2023/09/21 07:20:26;;;;;;;4.10;2.00;;;;;;;16.98;100.00;99735.03;5056205;28;19908;-36
2023/09/21 07:22:54;;;;;;;2.28;1.50;;;;;;;16.98;100.00;99729.59;5057675;28;20024;-36
2023/09/21 07:25:22;;;;;;;3.88;1.92;;;;;;;16.92;100.00;99726.13;5057518;28;20025;-36
2023/09/21 07:27:48;;;;;;;3.17;1.80;;;;;;;16.90;100.00;99711.19;5057821;28;20028;-36
2023/09/21 07:30:14;;;;;;;;;;;;;;;16.98;100.00;99713.19;5058440;28;20024;-36
2023/09/21 07:32:39;;;;;;;3.53;2.10;;;;;;;16.93;100.00;99716.84;5057699;28;19912;-36
2023/09/21 07:35:06;;;;;;;;;;;;;;;16.97;100.00;99717.84;5057554;28;20029;-36
2023/09/21 07:37:32;;;;;;;3.53;2.30;;;;;;;16.87;100.00;99718.03;5056851;28;20019;-36
2023/09/21 07:39:57;;;;;;;;;;;;;;;16.95;100.00;99713.81;5057209;28;20147;-36
2023/09/21 07:42:23;;;;;;;2.63;1.85;;;;;;;16.89;100.00;99717.75;5057512;28;19912;-36
2023/09/21 07:44:48;;;;;;;;;;;;;;;16.95;100.00;99724.75;5057118;28;20063;-37
2023/09/21 07:47:14;;;;;;;4.85;2.10;;;;;;;16.92;100.00;99730.78;5055709;28;19905;-36
2023/09/21 07:49:39;;;;;;;;;;;;;;;16.98;100.00;99726.84;5057559;28;20057;-37
2023/09/21 07:52:05;;;;;;;3.78;2.20;;;;;;;16.92;100.00;99730.78;5057589;28;20289;-36
2023/09/21 07:54:31;;;;;;;;;;;;;;;16.98;100.00;99729.59;5057453;28;20048;-36
2023/09/21 07:56:57;;;;;;;3.67;2.22;;;;;;;16.94;100.00;99728.59;5056881;28;19905;-36
2023/09/21 07:59:22;;;;;;;;;;;;;;;16.99;100.00;99736.69;5056880;28;20064;-36
2023/09/21 08:01:48;;;;;;;3.47;2.13;;;;;;;16.92;100.00;99744.44;5057156;28;19916;-36
2023/09/21 08:04:14;;;;;;;;;;;;;;;16.98;100.00;99740.50;5057524;28;20334;-36
2023/09/21 08:06:39;;;;;;;5.43;2.60;;;;;;;16.89;100.00;99742.34;5057138;28;19924;-36
2023/09/21 08:09:04;;;;;;;;;;;;;;;16.96;100.00;99759.13;5056642;28;20150;-36
2023/09/21 08:11:29;;;;;;;3.15;1.88;;;;;;;16.87;100.00;99753.53;5056524;28;19909;-36
2023/09/21 08:13:55;;;;;;;;;;;;;;;16.97;100.00;99763.47;5056877;28;20475;-36
2023/09/21 08:16:21;;;;;;;2.60;1.88;;;;;;;16.92;100.00;99760.81;5056377;28;19909;-36
2023/09/21 08:18:47;;;;;;;;;;;;;;;16.96;100.00;99764.59;5056918;28;20023;-36
2023/09/21 08:21:14;;;;;;;4.35;2.13;;;;;;;16.91;100.00;99761.94;5056548;28;20249;-36
2023/09/21 08:23:42;;;;;;;3.88;2.17;;;;;;;16.87;100.00;99771.84;5055942;28;20108;-36
2023/09/21 08:26:08;;;;;;;2.33;1.73;;;;;;;16.76;100.00;99752.09;5056919;28;20028;-36
2023/09/21 08:28:33;;;;;;;;;;;;;;;16.91;100.00;99767.41;5057117;28;20365;-36
2023/09/21 08:30:58;;;;;;;5.93;2.63;;;;;;;16.81;100.00;99770.31;5055616;28;20426;-36
2023/09/21 08:33:24;;;;;;;;;;;;;;;16.91;100.00;99779.13;5056537;28;20634;-36
2023/09/21 08:35:49;;;;;;;2.33;1.70;;;;;;;16.82;100.00;99785.56;5055683;28;19912;-36
2023/09/21 08:38:17;;;;;;;;;;;;;;;16.89;100.00;99794.22;5056316;28;20025;-36
2023/09/21 08:40:47;;;;;;;2.60;1.83;;;;;;;16.83;100.00;99795.38;5056108;28;20010;-36
2023/09/21 08:43:20;;;;;;;4.03;1.63;;;;;;;16.76;100.00;99793.03;5056144;28;20036;-36
2023/09/21 08:45:49;;;;;;;3.00;1.70;;;;;;;16.77;100.00;99799.31;5056070;28;20032;-36
2023/09/21 08:48:18;;;;;;;2.85;1.30;;;;;;;16.67;100.00;99809.25;5056315;28;20024;-36
2023/09/21 08:50:44;;;;;;;1.30;1.00;;;;;;;16.55;100.00;99819.81;5055694;28;20596;-36
2023/09/21 08:53:12;;;;;;;;;;;;;;;16.67;100.00;99824.81;5056410;28;20108;-36
2023/09/21 08:55:38;;;;;;;1.75;0.80;;;;;;;16.45;100.00;99819.97;5055309;28;19909;-36
2023/09/21 08:58:06;;;;;;;1.60;0.70;;;;;;;16.35;100.00;99831.03;5056085;28;20108;-36
2023/09/21 09:00:33;;;;;;;0.98;0.63;;;;;;;16.27;100.00;99831.66;5055324;28;20374;-36
2023/09/21 09:02:59;;;;;;;1.50;0.63;;;;;;;16.28;100.00;99828.63;5055509;28;20024;-36
2023/09/21 09:05:25;;;;;;;1.10;0.70;;;;;;;16.26;100.00;99821.88;5055159;28;20108;-36
2023/09/21 09:07:51;;;;;;;;;;;;;;;16.41;100.00;99827.09;5055823;28;20108;-36
2023/09/21 09:10:18;;;;;;;1.50;0.68;;;;;;;16.17;100.00;99830.69;5055341;28;19909;-36
2023/09/21 09:12:43;;;;;;;1.35;0.57;;;;;;;16.08;100.00;99813.34;5055958;28;20150;-37
2023/09/21 09:15:09;;;;;;;;;;;;;;;16.23;100.00;99812.34;5055853;28;20059;-37
2023/09/21 09:17:35;;;;;;;1.75;0.70;;;;;;;16.12;100.00;99794.50;5055926;28;20003;-36
2023/09/21 09:20:05;;;;;;;1.60;0.77;;;;;;;16.19;100.00;99820.28;5055146;28;20032;-36
2023/09/21 09:22:34;;;;;;;1.70;0.73;;;;;;;16.15;100.00;99829.34;5055197;28;20044;-37
2023/09/21 09:25:09;;;;;;;2.17;0.60;;;;;;;16.26;100.00;99827.31;5055325;28;20032;-37
2023/09/21 09:27:35;;;;;;;0.70;0.50;;;;;;;16.20;100.00;99829.28;5054699;28;20083;-37
2023/09/21 09:30:03;;;;;;;1.40;0.80;;;;;;;16.04;100.00;99830.59;5054957;28;20028;-37
2023/09/21 09:32:41;;;;;;;2.08;0.73;;;;;;;16.12;100.00;99813.59;5055756;28;20025;-37
2023/09/21 09:35:13;;;;;;;1.67;0.75;;;;;;;16.14;100.00;99789.53;5055667;28;20076;-37
2023/09/21 09:37:47;;;;;;;1.33;0.90;;;;;;;16.18;100.00;99804.22;5055045;28;20037;-37
2023/09/21 09:40:14;;;;;;;1.85;0.95;;;;;;;16.19;100.00;99800.38;5055359;28;20434;-37
2023/09/21 09:42:41;;;;;;;1.65;0.80;;;;;;;16.29;100.00;99785.78;5053901;28;20030;-37
2023/09/21 09:45:25;;;;;;;2.15;0.80;;;;;;;16.36;100.00;99795.25;5055080;28;20116;-37
2023/09/21 09:47:56;;;;;;;1.08;0.65;;;;;;;16.42;100.00;99796.78;5054891;28;20025;-37
2023/09/21 09:50:25;;;;;;;1.73;0.70;;;;;;;16.34;100.00;99791.19;5054544;28;20373;-37
2023/09/21 09:53:00;;;;;;;1.17;0.77;;;;;;;16.32;100.00;99804.31;5054557;28;20036;-37
2023/09/21 09:55:31;;;;;;;1.27;0.70;;;;;;;16.37;100.00;99791.41;5054841;28;20028;-37
2023/09/21 09:57:57;;;;;;;1.13;0.88;;;;;;;16.34;100.00;99797.44;5054904;28;20024;-37
2023/09/21 10:00:27;;;;;;;1.08;0.80;;;;;;;16.41;100.00;99789.72;5054524;28;20057;-37
2023/09/21 10:02:57;;;;;;;2.10;1.00;;;;;;;16.34;100.00;99791.19;5054709;28;20070;-37
2023/09/21 10:05:24;;;;;;;1.40;0.88;;;;;;;16.40;100.00;99790.03;5054131;28;20036;-37
2023/09/21 10:07:51;;;;;;;2.47;1.10;;;;;;;16.21;100.00;99779.91;5054848;28;20037;-36
2023/09/21 10:10:21;;;;;;;1.63;1.33;;;;;;;16.26;100.00;99773.56;5054193;28;20025;-37
2023/09/21 10:12:51;;;;;;;1.88;1.20;;;;;;;16.46;100.00;99776.00;5054351;28;20468;-36
2023/09/21 10:15:22;;;;;;;1.60;1.02;;;;;;;16.48;100.00;99775.69;5053832;28;20397;-36
2023/09/21 10:17:50;;;;;;;2.63;1.10;;;;;;;16.31;100.00;99772.69;5054309;28;20425;-37
2023/09/21 10:20:24;;;;;;;2.05;1.00;;;;;;;16.29;100.00;99769.44;5053968;28;20031;-37
2023/09/21 10:22:51;;;;;;;2.17;1.00;;;;;;;16.11;100.00;99766.41;5054541;28;20035;-37
2023/09/21 10:25:36;;;;;;;1.85;1.20;;;;;;;16.13;100.00;99764.19;5054118;28;20361;-36
2023/09/21 10:28:22;;;;;;;1.33;0.85;;;;;;;16.13;100.00;99758.75;5054777;28;20024;-37
2023/09/21 10:30:47;;;;;;;3.38;1.05;;;;;;;16.15;100.00;99745.63;5054191;28;20025;-36
2023/09/21 10:33:13;;;;;;;;;;;;;;;16.39;100.00;99767.34;5054344;28;20377;-37
2023/09/21 10:35:45;;;;;;;1.92;1.10;;;;;;;16.42;100.00;99771.44;5053779;28;19905;-37
2023/09/21 10:38:16;;;;;;;1.63;1.30;;;;;;;16.46;100.00;99767.00;5053985;28;20523;-36
2023/09/21 10:40:42;;;;;;;2.03;1.25;;;;;;;16.57;100.00;99763.00;5053673;28;20461;-37
2023/09/21 10:43:53;;;;;;;3.15;1.60;;;;;;;16.48;100.00;99759.31;5054016;28;20082;-37
2023/09/21 10:46:22;;;;;;;2.47;1.80;;;;;;;16.51;100.00;99750.56;5052774;28;20115;-37
2023/09/21 10:48:56;;;;;;;3.83;1.60;;;;;;;16.57;100.00;99743.09;5054471;28;20044;-37
2023/09/21 10:51:22;;;;;;;2.78;1.65;;;;;;;16.58;100.00;99741.97;5053840;28;20146;-37
2023/09/21 10:53:48;;;;;;;;;;;;;;;16.69;100.00;99736.06;5053865;28;20060;-37
2023/09/21 10:56:14;;;;;;;3.57;2.10;;;;;;;16.70;100.00;99739.63;5054096;28;20283;-37
2023/09/21 10:58:40;;;;;;;;;;;;;;;16.83;100.00;99738.03;5054350;28;20029;-37
2023/09/21 11:01:06;;;;;;;3.40;2.33;;;;;;;16.84;100.00;99735.03;5053726;28;19913;-37
2023/09/21 11:03:32;;;;;;;;;;;;;;;16.94;100.00;99731.31;5054805;28;20090;-37
2023/09/21 11:06:00;;;;;;;2.67;2.45;;;;;;;16.97;100.00;99723.31;5054003;28;19987;-37
2023/09/21 11:08:26;;;;;;;;;;;;;;;17.04;100.00;99720.22;5054180;28;20071;-37
2023/09/21 11:10:53;;;;;;;3.90;2.83;;;;;;;16.88;100.00;99714.19;5053936;28;19905;-37
2023/09/21 11:13:18;;;;;;;3.38;2.60;;;;;;;16.91;100.00;99716.34;5053692;28;20063;-37
2023/09/21 11:15:45;;;;;;;;;;;;;;;17.03;100.00;99726.78;5053564;28;20068;-37
2023/09/21 11:18:10;;;;;;;3.53;2.00;;;;;;;16.89;100.00;99706.84;5053578;28;19909;-37
2023/09/21 11:20:35;;;;;;;;;;;;;;;16.98;100.00;99699.53;5053979;28;20488;-37
2023/09/21 11:23:02;;;;;;;1.83;1.50;;;;;;;16.82;100.00;99696.28;5053397;28;19905;-37
2023/09/21 11:25:27;;;;;;;2.60;1.55;;;;;;;16.79;100.00;99699.63;5052921;28;20110;-37
2023/09/21 11:27:53;;;;;;;;;;;;;;;16.83;100.00;99710.75;5053474;28;20060;-37
2023/09/21 11:30:19;;;;;;;2.38;1.45;;;;;;;16.68;100.00;99709.88;5053161;28;19948;-37
2023/09/21 11:32:48;;;;;;;;;;;;;;;16.71;100.00;99713.94;5054223;28;20043;-37
2023/09/21 11:35:18;;;;;;;3.13;1.88;;;;;;;16.65;100.00;99743.22;5053161;28;19954;-37
2023/09/21 11:37:45;;;;;;;3.63;1.63;;;;;;;16.62;100.00;99771.13;5053641;28;20349;-36
2023/09/21 11:40:13;;;;;;;2.83;1.50;;;;;;;16.48;100.00;99740.22;5053404;28;20025;-37
2023/09/21 11:42:45;;;;;;;5.00;1.63;;;;;;;16.41;100.00;99737.06;5053715;28;20017;-36
2023/09/21 11:45:16;;;;;;;3.97;1.65;;;;;;;16.25;100.00;99728.31;5053917;28;20129;-37